Time;durP1;ratioP1;P1;durP2;ratioP2;P2;SDS_P1;SDS_P2;PMS_P1;PMS_P2;Temp;Humidity;BMP_temperature;BMP_pressure;BME280_temperature;BME280_humidity;BME280_pressure;Samples;Min_cycle;Max_cycle;Signal;HPM_P1;HPM_P2
2021/11/30 00:01:51;;;;;;;7.47;2.40;;;;;;;3.87;85.60;101072.63;5051304;28;20457;-71
2021/11/30 00:04:18;;;;;;;9.73;2.25;;;;;;;3.89;87.18;101076.00;5051683;28;20044;-71
2021/11/30 00:06:45;;;;;;;12.55;1.98;;;;;;;3.94;88.41;101065.22;5051165;28;20044;-72
2021/11/30 00:12:16;;;;;;;13.48;2.00;;;;;;;3.96;90.97;101058.06;5014167;28;20433;-72
2021/11/30 00:14:44;;;;;;;10.32;2.72;;;;;;;3.93;92.43;101041.63;5051158;28;20040;-76
2021/11/30 00:17:10;;;;;;;8.68;2.50;;;;;;;3.88;93.41;101037.47;5051503;28;20439;-71
2021/11/30 00:19:37;;;;;;;5.65;2.35;;;;;;;3.85;94.93;101036.78;5051193;28;20029;-72
2021/11/30 00:22:04;;;;;;;7.32;2.75;;;;;;;3.84;95.86;101040.38;5032997;28;20124;-71
2021/11/30 00:24:30;;;;;;;8.75;2.75;;;;;;;3.84;97.27;101028.06;5054571;28;20021;-70
2021/11/30 00:26:57;;;;;;;5.07;2.65;;;;;;;3.86;98.31;101022.69;5054671;28;20033;-71
2021/11/30 00:29:23;;;;;;;13.80;2.92;;;;;;;3.84;98.21;101016.69;5055355;28;20063;-71
2021/11/30 00:31:49;;;;;;;7.40;2.40;;;;;;;3.84;99.65;101012.25;5054301;28;20079;-72
2021/11/30 00:34:14;;;;;;;9.23;3.25;;;;;;;3.84;100.00;101006.16;5055045;28;20370;-71
2021/11/30 00:36:40;;;;;;;9.10;2.80;;;;;;;3.89;100.00;101015.44;5054905;28;20032;-70
2021/11/30 00:39:05;;;;;;;11.35;2.90;;;;;;;3.91;100.00;100994.28;5054333;28;20041;-72
2021/11/30 00:41:31;;;;;;;16.27;3.33;;;;;;;3.97;100.00;100990.47;5055012;28;20033;-72
2021/11/30 00:43:57;;;;;;;12.93;3.20;;;;;;;4.01;100.00;100990.19;5054354;28;20025;-72
2021/11/30 00:46:38;;;;;;;16.85;3.40;;;;;;;4.04;100.00;100989.16;5054800;28;20036;-69
2021/11/30 00:49:06;;;;;;;13.93;3.60;;;;;;;4.12;100.00;100980.78;5054074;28;20029;-71
2021/11/30 00:51:34;;;;;;;14.25;3.60;;;;;;;4.17;100.00;100971.66;5054968;28;20029;-70
2021/11/30 00:54:00;;;;;;;8.70;3.20;;;;;;;4.22;100.00;100966.09;5054341;28;20025;-69
2021/11/30 00:56:26;;;;;;;11.45;3.22;;;;;;;4.24;100.00;100967.72;5054811;28;20485;-69
2021/11/30 00:58:53;;;;;;;12.50;3.72;;;;;;;4.30;100.00;100965.63;5054113;28;20064;-70
2021/11/30 01:01:19;;;;;;;12.70;4.07;;;;;;;4.32;100.00;100983.03;5054627;28;20071;-70
2021/11/30 01:03:44;;;;;;;11.30;3.80;;;;;;;4.36;100.00;100950.31;5054314;28;20091;-70
2021/11/30 01:06:10;;;;;;;14.73;4.22;;;;;;;4.39;100.00;100942.19;5054119;28;20070;-70
2021/11/30 01:08:35;;;;;;;13.77;4.15;;;;;;;4.40;100.00;100943.91;5036918;28;20066;-69
2021/11/30 01:11:02;;;;;;;12.25;4.50;;;;;;;4.43;100.00;100944.63;5053732;28;20073;-71
2021/11/30 01:13:30;;;;;;;8.50;3.60;;;;;;;4.47;100.00;100954.88;5054452;28;20111;-70
2021/11/30 01:15:56;;;;;;;10.32;4.00;;;;;;;4.51;100.00;100931.81;5053651;28;20060;-71
2021/11/30 01:18:22;;;;;;;7.82;3.30;;;;;;;4.59;100.00;100926.91;5036680;28;20473;-71
2021/11/30 01:20:47;;;;;;;10.88;3.97;;;;;;;4.63;100.00;100931.06;5054235;28;20053;-70
2021/11/30 01:23:13;;;;;;;9.82;3.75;;;;;;;4.66;100.00;100940.53;5053526;28;20035;-70
2021/11/30 01:25:39;;;;;;;10.57;3.95;;;;;;;4.74;100.00;100933.81;5054156;28;20064;-70
2021/11/30 01:28:04;;;;;;;8.32;3.63;;;;;;;4.81;100.00;100925.50;5053497;28;20032;-69
2021/11/30 01:30:30;;;;;;;11.80;4.10;;;;;;;4.91;100.00;100926.59;5054125;28;20029;-70
2021/11/30 01:32:55;;;;;;;8.30;3.97;;;;;;;4.96;100.00;100921.91;5053264;28;20029;-70
2021/11/30 01:35:21;;;;;;;13.43;3.90;;;;;;;5.04;100.00;100921.38;5054126;28;20469;-70
2021/11/30 01:37:48;;;;;;;11.90;3.85;;;;;;;5.14;100.00;100954.13;5054166;28;20036;-69
2021/11/30 01:40:17;;;;;;;11.65;3.95;;;;;;;5.21;100.00;100936.09;5053408;28;20037;-69
2021/11/30 01:42:46;;;;;;;12.75;4.20;;;;;;;5.32;100.00;100920.41;5053804;28;20146;-69
2021/11/30 01:45:20;;;;;;;15.25;4.47;;;;;;;5.38;100.00;100933.16;5035331;28;20041;-70
2021/11/30 01:50:31;;;;;;;9.55;4.13;;;;;;;5.53;100.00;100917.25;5053797;28;20048;-70
2021/11/30 01:52:57;;;;;;;9.77;4.70;;;;;;;5.56;100.00;100909.13;5053023;28;20032;-70
2021/11/30 01:55:23;;;;;;;14.77;4.38;;;;;;;5.59;100.00;100906.28;5053809;28;20140;-70
2021/11/30 01:57:51;;;;;;;11.30;3.95;;;;;;;5.62;100.00;100906.06;5053457;28;20469;-70
2021/11/30 02:00:18;;;;;;;14.07;4.75;;;;;;;5.65;100.00;100905.84;5052951;28;20492;-70
2021/11/30 02:02:44;;;;;;;12.98;4.53;;;;;;;5.64;100.00;100920.84;5053744;28;20037;-70
2021/11/30 02:05:11;;;;;;;15.10;4.72;;;;;;;5.65;100.00;100905.84;5052794;28;20032;-69
2021/11/30 02:07:37;;;;;;;11.48;5.85;;;;;;;5.71;100.00;100901.94;5053443;28;20032;-70
2021/11/30 02:10:06;;;;;;;11.10;5.20;;;;;;;5.72;100.00;100896.56;5052677;28;20079;-70
2021/11/30 02:12:32;;;;;;;9.82;4.88;;;;;;;5.74;100.00;100904.38;5053309;28;20043;-71
2021/11/30 02:14:58;;;;;;;11.18;4.90;;;;;;;5.79;100.00;100883.75;5052393;28;20037;-74
2021/11/30 02:17:23;;;;;;;10.60;4.30;;;;;;;5.83;100.00;100894.00;5053409;28;20428;-70
2021/11/30 02:19:55;;;;;;;14.15;4.45;;;;;;;5.89;100.00;100871.59;5034912;28;20147;-70
2021/11/30 02:22:21;;;;;;;14.48;4.00;;;;;;;5.92;100.00;100887.25;5052611;28;20540;-70
2021/11/30 02:24:47;;;;;;;8.52;4.40;;;;;;;5.96;100.00;100866.75;5052947;28;20025;-70
2021/11/30 02:27:12;;;;;;;10.20;4.22;;;;;;;5.96;100.00;100872.03;5052441;28;20527;-70
2021/11/30 02:29:38;;;;;;;12.10;3.90;;;;;;;6.00;100.00;100866.47;5052795;28;20064;-70
2021/11/30 02:32:04;;;;;;;17.98;5.30;;;;;;;6.00;100.00;100862.94;5052393;28;20041;-70
2021/11/30 02:34:30;;;;;;;8.93;4.13;;;;;;;6.03;100.00;100859.25;5052784;28;20079;-71
2021/11/30 02:37:03;;;;;;;12.63;3.28;;;;;;;6.03;100.00;100852.19;5052759;28;20448;-70
2021/11/30 02:39:29;;;;;;;10.18;3.72;;;;;;;6.06;100.00;100870.47;5052769;28;20465;-70
2021/11/30 02:41:55;;;;;;;8.95;3.20;;;;;;;6.07;100.00;100861.56;5052530;28;20029;-70
2021/11/30 02:44:23;;;;;;;16.63;4.00;;;;;;;6.08;100.00;100857.16;5052004;28;20947;-70
2021/11/30 02:46:50;;;;;;;14.38;3.83;;;;;;;6.12;100.00;100854.19;5052221;28;20029;-70
2021/11/30 02:49:21;;;;;;;13.57;3.28;;;;;;;6.16;100.00;100860.06;5052057;28;20440;-70
2021/11/30 02:51:51;;;;;;;20.50;4.55;;;;;;;6.16;100.00;100845.06;5052559;28;20029;-71
2021/11/30 02:54:20;;;;;;;11.63;2.88;;;;;;;6.19;100.00;100849.28;5051937;28;20057;-71
2021/11/30 02:56:49;;;;;;;14.50;3.00;;;;;;;6.22;100.00;100850.88;5052645;28;20067;-70
2021/11/30 02:59:15;;;;;;;13.20;2.75;;;;;;;6.23;100.00;100842.81;5051678;28;20136;-70
2021/11/30 03:01:42;;;;;;;12.50;2.88;;;;;;;6.22;100.00;100843.78;5052648;28;20504;-70
2021/11/30 03:04:13;;;;;;;12.10;2.50;;;;;;;6.27;100.00;100839.03;5051710;28;20029;-71
2021/11/30 03:06:40;;;;;;;15.25;3.28;;;;;;;6.29;100.00;100826.53;5052783;28;20029;-70
2021/11/30 03:09:06;;;;;;;10.70;2.67;;;;;;;6.31;100.00;100847.56;5051601;28;20047;-73
2021/11/30 03:11:32;;;;;;;20.63;3.80;;;;;;;6.35;100.00;100820.78;5052217;28;20380;-71
2021/11/30 03:13:57;;;;;;;7.03;2.55;;;;;;;6.36;100.00;100821.66;5052481;28;20441;-70
2021/11/30 03:16:22;;;;;;;11.30;2.85;;;;;;;6.38;100.00;100822.38;5051945;28;20032;-70
2021/11/30 03:18:48;;;;;;;13.93;3.10;;;;;;;6.40;100.00;100825.72;5052187;28;20096;-70
2021/11/30 03:21:13;;;;;;;13.07;2.95;;;;;;;6.43;100.00;100814.09;5051383;28;20069;-71
2021/11/30 03:23:41;;;;;;;11.80;2.95;;;;;;;6.44;100.00;100816.63;5052076;28;20032;-71
2021/11/30 03:26:07;;;;;;;10.05;3.17;;;;;;;6.47;100.00;100818.22;5051398;28;20029;-76
2021/11/30 03:28:32;;;;;;;11.13;3.35;;;;;;;6.50;100.00;100797.66;5052183;28;20082;-70
2021/11/30 03:31:03;;;;;;;12.50;3.47;;;;;;;6.47;100.00;100823.50;5051949;28;20040;-71
2021/11/30 03:36:13;;;;;;;11.52;4.63;;;;;;;6.48;100.00;100812.81;5051634;28;20616;-71
2021/11/30 03:38:38;;;;;;;10.10;4.70;;;;;;;6.50;100.00;100813.53;5052104;28;20037;-71
2021/11/30 03:41:04;;;;;;;14.02;5.03;;;;;;;6.49;100.00;100814.50;5052362;28;20025;-71
2021/11/30 03:43:29;;;;;;;16.10;5.50;;;;;;;6.51;100.00;100794.06;5051798;28;20048;-71
2021/11/30 03:45:54;;;;;;;18.95;6.05;;;;;;;6.56;100.00;100816.69;5051854;28;20530;-70
2021/11/30 03:48:20;;;;;;;12.20;5.13;;;;;;;6.56;100.00;100800.84;5051193;28;20033;-71
2021/11/30 03:50:46;;;;;;;16.70;5.25;;;;;;;6.55;100.00;100796.50;5051783;28;20120;-72
2021/11/30 03:53:11;;;;;;;18.83;5.70;;;;;;;6.55;100.00;100815.00;5051256;28;20489;-72
2021/11/30 03:55:36;;;;;;;16.45;5.88;;;;;;;6.56;100.00;100801.66;5051934;28;20126;-71
2021/11/30 03:58:02;;;;;;;22.15;6.55;;;;;;;6.61;100.00;100798.69;5052750;28;20489;-71
2021/11/30 04:00:28;;;;;;;14.25;6.47;;;;;;;6.62;100.00;100806.50;5037535;28;20037;-71
2021/11/30 04:02:53;;;;;;;20.98;6.30;;;;;;;6.64;100.00;100803.72;5055767;28;20496;-71
2021/11/30 04:05:19;;;;;;;16.65;5.85;;;;;;;6.66;100.00;100801.84;5054967;28;20036;-71
2021/11/30 04:07:44;;;;;;;20.05;5.93;;;;;;;6.66;100.00;100796.56;5037618;28;20079;-71
2021/11/30 04:10:09;;;;;;;20.63;6.60;;;;;;;6.66;100.00;100805.31;5055813;28;20032;-73
2021/11/30 04:12:35;;;;;;;22.58;6.13;;;;;;;6.69;100.00;100813.00;5055136;28;20117;-71
2021/11/30 04:15:00;;;;;;;19.75;6.43;;;;;;;6.74;100.00;100786.22;5055675;28;20458;-70
2021/11/30 04:17:26;;;;;;;20.10;6.53;;;;;;;6.75;100.00;100792.34;5054990;28;20025;-71
2021/11/30 04:19:51;;;;;;;16.38;7.07;;;;;;;6.75;100.00;100785.28;5055269;28;20045;-71
2021/11/30 04:22:17;;;;;;;21.20;6.90;;;;;;;6.81;100.00;100776.03;5054735;28;20125;-71
2021/11/30 04:24:42;;;;;;;27.17;7.45;;;;;;;6.82;100.00;100796.22;5055215;28;20037;-70
2021/11/30 04:27:08;;;;;;;17.90;6.80;;;;;;;6.82;100.00;100790.94;5055375;28;20037;-71
2021/11/30 04:29:37;;;;;;;21.15;6.75;;;;;;;6.83;100.00;100797.91;5054813;28;20500;-71
2021/11/30 04:32:04;;;;;;;19.65;7.05;;;;;;;6.86;100.00;100787.94;5037777;28;20033;-70
2021/11/30 04:34:29;;;;;;;24.42;6.70;;;;;;;6.92;100.00;100793.75;5054613;28;20024;-71
2021/11/30 04:36:55;;;;;;;21.67;6.65;;;;;;;6.92;100.00;100773.41;5054999;28;20024;-71
2021/11/30 04:39:20;;;;;;;20.67;6.32;;;;;;;6.90;100.00;100770.03;5054840;28;20040;-71
2021/11/30 04:41:45;;;;;;;21.27;6.25;;;;;;;6.92;100.00;100775.22;5055178;28;20485;-71
2021/11/30 04:44:11;;;;;;;19.05;6.40;;;;;;;6.98;100.00;100762.34;5055078;28;20033;-70
2021/11/30 04:46:48;;;;;;;15.13;5.78;;;;;;;6.98;100.00;100761.53;5054298;28;20115;-69
2021/11/30 04:49:17;;;;;;;20.95;5.97;;;;;;;6.99;100.00;100768.50;5054956;28;20036;-70
2021/11/30 04:51:42;;;;;;;22.88;6.20;;;;;;;6.99;100.00;100760.56;5054606;28;20053;-70
2021/11/30 04:54:07;;;;;;;22.83;6.38;;;;;;;6.98;100.00;100770.28;5055014;28;20508;-70
2021/11/30 04:56:34;;;;;;;16.95;5.28;;;;;;;7.00;100.00;100756.94;5054036;28;20390;-70
2021/11/30 04:58:59;;;;;;;24.63;6.90;;;;;;;7.00;100.00;100749.00;5054773;28;20025;-71
2021/11/30 05:01:24;;;;;;;19.45;6.22;;;;;;;7.02;100.00;100752.41;5054073;28;20102;-70
2021/11/30 05:03:51;;;;;;;26.25;7.18;;;;;;;7.06;100.00;100748.53;5054488;28;20043;-70
2021/11/30 05:06:16;;;;;;;23.52;6.22;;;;;;;7.07;100.00;100755.53;5054221;28;20033;-71
2021/11/30 05:08:42;;;;;;;24.08;6.40;;;;;;;7.05;100.00;100760.94;5053384;28;20035;-70
2021/11/30 05:11:08;;;;;;;30.85;7.10;;;;;;;7.06;100.00;100767.06;5054560;28;20112;-71
2021/11/30 05:13:34;;;;;;;21.70;6.45;;;;;;;7.08;100.00;100762.50;5054022;28;20037;-71
2021/11/30 05:16:00;;;;;;;29.55;6.82;;;;;;;7.09;100.00;100755.41;5054352;28;20028;-71
2021/11/30 05:18:25;;;;;;;20.35;7.53;;;;;;;7.11;100.00;100748.22;5035909;28;20029;-71
2021/11/30 05:20:53;;;;;;;22.25;6.45;;;;;;;7.12;100.00;100745.44;5054492;28;20049;-70
2021/11/30 05:23:27;;;;;;;21.70;6.50;;;;;;;7.12;100.00;100744.56;5054242;28;20115;-70
2021/11/30 05:25:53;;;;;;;21.42;6.45;;;;;;;7.11;100.00;100756.97;5054441;28;20040;-71
2021/11/30 05:28:18;;;;;;;23.88;6.05;;;;;;;7.14;100.00;100746.16;5054358;28;20029;-71
2021/11/30 05:30:44;;;;;;;22.83;5.93;;;;;;;7.15;100.00;100750.50;5053421;28;20527;-70
2021/11/30 05:33:10;;;;;;;22.95;5.88;;;;;;;7.18;100.00;100757.31;5054012;28;20032;-70
2021/11/30 05:35:37;;;;;;;27.77;6.65;;;;;;;7.18;100.00;100752.91;5053176;28;20041;-71
2021/11/30 05:38:02;;;;;;;28.15;6.00;;;;;;;7.24;100.00;100743.66;5054156;28;20140;-70
2021/11/30 05:40:28;;;;;;;25.90;6.57;;;;;;;7.24;100.00;100746.28;5053254;28;20089;-70
2021/11/30 05:42:54;;;;;;;18.05;5.50;;;;;;;7.21;100.00;100752.66;5053885;28;20033;-70
2021/11/30 05:45:19;;;;;;;28.90;6.70;;;;;;;7.20;100.00;100760.72;5053853;28;20036;-70
2021/11/30 05:47:46;;;;;;;18.05;6.50;;;;;;;7.22;100.00;100750.84;5053158;28;20412;-70
2021/11/30 05:50:11;;;;;;;26.73;6.25;;;;;;;7.22;100.00;100754.31;5053459;28;20083;-71
2021/11/30 05:52:37;;;;;;;21.85;5.60;;;;;;;7.24;100.00;100757.72;5053256;28;20404;-71
2021/11/30 05:55:04;;;;;;;22.95;6.15;;;;;;;7.21;100.00;100757.94;5053606;28;20047;-71
2021/11/30 05:57:30;;;;;;;22.35;5.35;;;;;;;7.20;100.00;100758.06;5035530;28;20062;-71
2021/11/30 05:59:59;;;;;;;29.38;5.72;;;;;;;7.23;100.00;100763.94;5053390;28;20040;-70
2021/11/30 06:02:24;;;;;;;20.10;4.82;;;;;;;7.30;100.00;100753.75;5035254;28;20021;-74
2021/11/30 06:04:50;;;;;;;30.45;5.53;;;;;;;7.30;100.00;100758.19;5052786;28;20143;-70
2021/11/30 06:07:15;;;;;;;22.73;4.85;;;;;;;7.34;100.00;100763.09;5053596;28;20036;-70
2021/11/30 06:09:41;;;;;;;21.73;5.50;;;;;;;7.38;100.00;100745.19;5052711;28;20463;-69
2021/11/30 06:12:07;;;;;;;21.10;4.80;;;;;;;7.41;100.00;100758.19;5053326;28;20436;-69
2021/11/30 06:14:32;;;;;;;26.40;5.15;;;;;;;7.47;100.00;100757.69;5052707;28;20045;-69
2021/11/30 06:16:58;;;;;;;21.95;5.40;;;;;;;7.47;100.00;100746.28;5053237;28;20029;-70
2021/11/30 06:19:23;;;;;;;25.73;3.90;;;;;;;7.52;100.00;100752.03;5052767;28;20037;-70
2021/11/30 06:21:49;;;;;;;22.35;6.35;;;;;;;7.55;100.00;100749.16;5051784;28;20411;-71
2021/11/30 06:24:16;;;;;;;22.55;3.90;;;;;;;7.58;100.00;100746.25;5053009;28;20492;-71
2021/11/30 06:26:41;;;;;;;16.75;4.32;;;;;;;7.59;100.00;100745.31;5052545;28;20044;-70
2021/11/30 06:29:07;;;;;;;17.27;3.72;;;;;;;7.63;100.00;100757.34;5052883;28;20036;-70
2021/11/30 06:31:33;;;;;;;17.48;4.10;;;;;;;7.63;100.00;100762.63;5052374;28;20032;-69
2021/11/30 06:33:59;;;;;;;22.38;4.53;;;;;;;7.63;100.00;100764.44;5038767;28;20033;-70
2021/11/30 06:36:24;;;;;;;29.30;4.50;;;;;;;7.71;100.00;100759.38;4996287;28;20135;-70
2021/11/30 06:38:50;;;;;;;23.17;4.00;;;;;;;7.73;100.00;100757.44;5029625;28;20034;-70
2021/11/30 06:41:16;;;;;;;14.40;3.85;;;;;;;7.72;100.00;100763.72;5012667;28;20464;-71
2021/11/30 06:43:41;;;;;;;21.05;4.13;;;;;;;7.76;100.00;100757.19;5029785;28;20038;-72
2021/11/30 06:46:07;;;;;;;22.38;3.85;;;;;;;7.73;100.00;100768.03;5029862;28;20056;-70
2021/11/30 06:48:32;;;;;;;19.95;4.60;;;;;;;7.71;100.00;100768.16;5029426;28;20033;-75
2021/11/30 06:50:57;;;;;;;20.52;3.60;;;;;;;7.77;100.00;100772.94;5012496;28;20049;-70
2021/11/30 06:53:24;;;;;;;22.08;4.25;;;;;;;7.79;100.00;100769.34;5029621;28;20083;-70
2021/11/30 06:55:50;;;;;;;16.95;3.42;;;;;;;7.77;100.00;100778.25;5029095;28;20037;-71
2021/11/30 06:58:15;;;;;;;16.48;4.00;;;;;;;7.80;100.00;100779.81;5029177;28;20052;-71
2021/11/30 07:00:41;;;;;;;21.30;3.95;;;;;;;7.84;100.00;100775.97;5029319;28;20123;-70
2021/11/30 07:03:06;;;;;;;13.68;3.55;;;;;;;7.87;100.00;100770.44;5029579;28;20041;-70
2021/11/30 07:05:36;;;;;;;23.17;4.13;;;;;;;7.89;100.00;100765.00;5029478;28;20083;-72
2021/11/30 07:10:45;;;;;;;19.00;3.67;;;;;;;7.90;100.00;100769.34;5029159;28;20378;-71
2021/11/30 07:15:38;;;;;;;23.38;5.82;;;;;;;7.85;100.00;100771.50;5033120;28;20049;-71
2021/11/30 07:18:04;;;;;;;17.85;3.50;;;;;;;7.84;100.00;100775.16;5038586;28;20049;-70
2021/11/30 07:20:30;;;;;;;22.42;4.53;;;;;;;7.87;100.00;100775.72;5031183;28;20496;-69
2021/11/30 07:22:56;;;;;;;17.90;3.55;;;;;;;7.88;100.00;100768.59;5031517;28;20048;-70
2021/11/30 07:25:23;;;;;;;17.45;3.50;;;;;;;7.86;100.00;100784.63;5031631;28;20045;-70
2021/11/30 07:27:48;;;;;;;19.00;3.97;;;;;;;7.82;100.00;100782.34;5031197;28;20100;-69
2021/11/30 07:30:13;;;;;;;19.08;3.83;;;;;;;7.83;100.00;100789.34;5031681;28;20413;-69
2021/11/30 07:32:39;;;;;;;13.77;3.60;;;;;;;7.82;100.00;100780.53;5030606;28;20040;-70
2021/11/30 07:35:05;;;;;;;17.52;4.07;;;;;;;7.82;100.00;100793.78;5031714;28;20133;-69
2021/11/30 07:37:31;;;;;;;23.80;4.22;;;;;;;7.81;100.00;100801.84;5014250;28;20029;-69
2021/11/30 07:39:57;;;;;;;20.20;4.47;;;;;;;7.81;100.00;100797.41;5030970;28;20030;-70
2021/11/30 07:42:24;;;;;;;18.98;4.30;;;;;;;7.85;100.00;100793.56;5031378;28;20037;-71
2021/11/30 07:44:50;;;;;;;15.43;3.80;;;;;;;7.84;100.00;100804.28;5031204;28;20029;-71
2021/11/30 07:47:15;;;;;;;15.70;3.30;;;;;;;7.83;100.00;100803.41;5031223;28;20037;-70
2021/11/30 07:49:40;;;;;;;18.83;4.53;;;;;;;7.89;100.00;100804.75;5031187;28;20038;-69
2021/11/30 07:52:07;;;;;;;17.58;3.45;;;;;;;7.90;100.00;100793.19;5031136;28;20397;-70
2021/11/30 07:54:32;;;;;;;17.63;3.88;;;;;;;7.89;100.00;100797.63;5031410;28;20095;-69
2021/11/30 07:56:58;;;;;;;15.65;4.05;;;;;;;7.93;100.00;100798.25;5030857;28;20030;-70
2021/11/30 07:59:23;;;;;;;17.55;3.85;;;;;;;7.96;100.00;100795.34;5031403;28;20029;-69
2021/11/30 08:01:48;;;;;;;28.05;4.97;;;;;;;7.97;100.00;100793.53;5013168;28;20091;-71
2021/11/30 08:04:14;;;;;;;22.60;4.85;;;;;;;8.00;100.00;100794.13;5031217;28;20064;-71
2021/11/30 08:06:39;;;;;;;17.83;4.03;;;;;;;8.02;100.00;100805.44;5030652;28;20033;-70
2021/11/30 08:09:05;;;;;;;18.13;4.07;;;;;;;8.05;100.00;100802.53;5013923;28;20041;-70
2021/11/30 08:11:30;;;;;;;22.10;3.92;;;;;;;8.07;100.00;100805.06;5031146;28;20068;-73
2021/11/30 08:13:56;;;;;;;20.50;4.13;;;;;;;8.07;100.00;100808.56;5030797;28;20484;-72
2021/11/30 08:16:21;;;;;;;22.10;4.95;;;;;;;8.08;100.00;100806.75;5031636;28;20094;-72
2021/11/30 08:18:46;;;;;;;18.70;3.67;;;;;;;8.08;100.00;100799.66;5030562;28;20045;-72
2021/11/30 08:21:12;;;;;;;21.98;3.75;;;;;;;8.09;100.00;100803.13;5029639;28;20058;-72
2021/11/30 08:23:37;;;;;;;22.05;3.78;;;;;;;8.11;100.00;100811.81;5031074;28;20066;-71
2021/11/30 08:26:03;;;;;;;12.02;3.38;;;;;;;8.14;100.00;100816.03;5030893;28;20038;-71
2021/11/30 08:28:28;;;;;;;15.13;3.83;;;;;;;8.13;100.00;100801.91;5031036;28;20048;-71
2021/11/30 08:30:54;;;;;;;17.10;3.40;;;;;;;8.15;100.00;100800.00;5012850;28;20535;-71
2021/11/30 08:33:19;;;;;;;18.75;3.20;;;;;;;8.15;100.00;100807.09;5031152;28;20124;-70
2021/11/30 08:35:46;;;;;;;16.05;3.38;;;;;;;8.19;100.00;100803.25;5030545;28;20091;-72
2021/11/30 08:38:12;;;;;;;14.15;3.40;;;;;;;8.21;100.00;100804.81;5030945;28;20042;-71
2021/11/30 08:40:37;;;;;;;11.75;3.10;;;;;;;8.25;100.00;100805.38;5031106;28;20079;-71
2021/11/30 08:43:03;;;;;;;21.92;3.60;;;;;;;8.29;100.00;100806.84;5030423;28;20041;-70
2021/11/30 08:45:30;;;;;;;17.90;3.33;;;;;;;8.30;100.00;100814.66;5034167;28;20030;-70
2021/11/30 08:47:55;;;;;;;16.60;3.35;;;;;;;8.26;100.00;100799.97;5034157;28;20409;-71
2021/11/30 08:50:21;;;;;;;14.75;3.17;;;;;;;8.25;100.00;100808.88;5034421;28;20030;-71
2021/11/30 08:52:47;;;;;;;15.82;3.28;;;;;;;8.28;100.00;100815.75;5016476;28;20037;-71
2021/11/30 08:55:14;;;;;;;16.35;3.53;;;;;;;8.28;100.00;100807.78;5034349;28;20029;-71
2021/11/30 08:57:40;;;;;;;15.75;3.40;;;;;;;8.28;100.00;100813.94;5034328;28;20037;-70
2021/11/30 09:00:14;;;;;;;23.50;3.58;;;;;;;8.33;100.00;100807.41;5033902;28;20029;-70
2021/11/30 09:02:39;;;;;;;16.40;3.45;;;;;;;8.37;100.00;100836.19;5034181;28;20393;-70
2021/11/30 09:05:07;;;;;;;16.40;2.97;;;;;;;8.40;100.00;100819.19;5033564;28;20030;-70
2021/11/30 09:07:32;;;;;;;20.90;3.90;;;;;;;8.43;99.75;100822.47;5033977;28;20041;-72
2021/11/30 09:09:58;;;;;;;18.58;3.40;;;;;;;8.43;99.63;100825.13;5033582;28;20060;-71
2021/11/30 09:12:24;;;;;;;16.42;3.15;;;;;;;8.44;99.77;100837.41;5034231;28;20120;-71
2021/11/30 09:14:49;;;;;;;16.65;3.40;;;;;;;8.49;99.43;100830.91;5033743;28;20064;-70
2021/11/30 09:17:16;;;;;;;14.70;3.08;;;;;;;8.49;99.48;100829.09;5033679;28;20492;-71
2021/11/30 09:19:41;;;;;;;21.90;4.53;;;;;;;8.54;99.13;100824.25;5033913;28;20112;-70
2021/11/30 09:22:07;;;;;;;14.32;3.80;;;;;;;8.55;99.38;100836.53;5033718;28;20121;-72
2021/11/30 09:24:33;;;;;;;19.55;3.85;;;;;;;8.59;99.06;100827.34;5033568;28;20744;-72
2021/11/30 09:26:59;;;;;;;19.17;3.53;;;;;;;8.65;98.64;100834.81;5032053;28;20036;-71
2021/11/30 09:29:24;;;;;;;20.20;3.15;;;;;;;8.73;97.98;100843.94;5033551;28;20060;-71
2021/11/30 09:31:50;;;;;;;22.33;3.63;;;;;;;8.76;97.71;100849.00;5033241;28;20065;-70
2021/11/30 09:34:16;;;;;;;18.92;3.55;;;;;;;8.70;98.70;100841.56;5033698;28;20029;-72
2021/11/30 09:36:43;;;;;;;16.13;3.47;;;;;;;8.58;100.00;100841.63;5033796;28;20048;-71
2021/11/30 09:39:09;;;;;;;23.20;3.88;;;;;;;8.48;100.00;100835.38;5031872;28;20035;-71
2021/11/30 09:41:35;;;;;;;19.15;4.00;;;;;;;8.42;100.00;100841.13;5033276;28;20045;-71
2021/11/30 09:44:00;;;;;;;26.30;4.57;;;;;;;8.43;100.00;100840.16;5032696;28;20034;-70
2021/11/30 09:46:26;;;;;;;30.23;4.95;;;;;;;8.50;100.00;100832.59;5033058;28;20044;-70
2021/11/30 09:48:52;;;;;;;29.75;4.53;;;;;;;8.55;100.00;100848.97;5033043;28;20034;-71
2021/11/30 09:51:17;;;;;;;19.88;3.75;;;;;;;8.59;100.00;100847.75;5033715;28;20116;-72
2021/11/30 09:53:44;;;;;;;22.40;4.72;;;;;;;8.57;100.00;100842.56;5033346;28;20117;-72
2021/11/30 09:56:09;;;;;;;24.60;4.25;;;;;;;8.52;100.00;100844.75;5031577;28;20029;-71
2021/11/30 09:58:35;;;;;;;28.08;4.10;;;;;;;8.51;100.00;100847.53;5032920;28;20073;-71
2021/11/30 10:01:01;;;;;;;23.90;3.80;;;;;;;8.53;100.00;100840.31;5032199;28;20034;-71
2021/11/30 10:03:28;;;;;;;20.70;4.63;;;;;;;8.53;100.00;100846.44;5032800;28;20037;-72
2021/11/30 10:05:55;;;;;;;20.27;3.80;;;;;;;8.52;100.00;100847.41;5032539;28;20033;-72
2021/11/30 10:08:34;;;;;;;23.42;3.90;;;;;;;8.54;100.00;100849.91;5033071;28;20040;-73
2021/11/30 10:11:01;;;;;;;21.30;3.63;;;;;;;8.57;100.00;100842.56;5032255;28;20103;-70
2021/11/30 10:13:27;;;;;;;19.63;3.33;;;;;;;8.61;100.00;100844.00;5032580;28;20030;-71
2021/11/30 10:16:02;;;;;;;23.00;3.70;;;;;;;8.63;100.00;100855.31;5032278;28;20386;-70
2021/11/30 10:18:40;;;;;;;18.25;3.10;;;;;;;8.63;100.00;100860.63;5032941;28;20034;-70
2021/11/30 10:21:08;;;;;;;17.38;3.35;;;;;;;8.63;100.00;100852.66;5032080;28;20057;-70
2021/11/30 10:23:48;;;;;;;18.65;3.70;;;;;;;8.61;100.00;100851.09;5014849;28;20382;-72
2021/11/30 10:26:14;;;;;;;14.93;3.85;;;;;;;8.58;100.00;100854.88;5032809;28;20036;-71
2021/11/30 10:28:40;;;;;;;20.25;3.90;;;;;;;8.53;100.00;100849.09;5032585;28;20025;-71
2021/11/30 10:31:09;;;;;;;28.33;4.55;;;;;;;8.50;100.00;100848.50;5031938;28;20029;-69
2021/11/30 10:33:35;;;;;;;23.60;3.85;;;;;;;8.45;100.00;100870.94;5032384;28;20025;-70
2021/11/30 10:36:03;;;;;;;22.40;4.47;;;;;;;8.45;100.00;100860.31;5031882;28;20469;-71
2021/11/30 10:38:33;;;;;;;18.33;4.78;;;;;;;8.43;100.00;100846.31;5032187;28;20540;-72
2021/11/30 10:41:12;;;;;;;23.77;4.47;;;;;;;8.44;100.00;100848.03;5031859;28;20025;-71
2021/11/30 10:43:58;;;;;;;28.20;4.85;;;;;;;8.43;100.00;100846.31;5032186;28;20030;-70
2021/11/30 10:46:30;;;;;;;18.73;3.90;;;;;;;8.44;100.00;100855.16;5031945;28;20390;-70
2021/11/30 10:48:56;;;;;;;19.98;4.68;;;;;;;8.42;100.00;100838.47;5031886;28;20484;-72
2021/11/30 10:51:23;;;;;;;19.95;3.72;;;;;;;8.39;100.00;100860.78;5032219;28;20052;-71
2021/11/30 10:53:50;;;;;;;18.42;3.75;;;;;;;8.36;100.00;100861.03;5032389;28;20040;-70
2021/11/30 10:56:18;;;;;;;24.15;4.22;;;;;;;8.35;100.00;100843.44;5032008;28;20044;-71
2021/11/30 10:58:44;;;;;;;22.05;4.07;;;;;;;8.36;100.00;100853.09;5032040;28;20062;-70
2021/11/30 11:01:17;;;;;;;15.63;3.80;;;;;;;8.38;100.00;100842.38;5031576;28;20030;-71
2021/11/30 11:03:43;;;;;;;19.77;4.10;;;;;;;8.38;100.00;100840.53;5032312;28;20037;-71
2021/11/30 11:08:55;;;;;;;13.23;3.38;;;;;;;8.38;100.00;100851.16;5031395;28;20103;-74
2021/11/30 11:11:25;;;;;;;18.98;4.10;;;;;;;8.38;100.00;100848.50;5031972;28;20034;-71
2021/11/30 11:13:51;;;;;;;16.48;3.53;;;;;;;8.38;100.00;100845.84;5032137;28;20026;-72
2021/11/30 11:16:34;;;;;;;20.13;3.70;;;;;;;8.38;100.00;100842.38;5031224;28;20040;-72
2021/11/30 11:19:09;;;;;;;20.40;4.18;;;;;;;8.39;100.00;100825.47;5031462;28;20034;-73
2021/11/30 11:21:37;;;;;;;18.38;4.30;;;;;;;8.38;100.00;100829.94;5031498;28;20045;-71
2021/11/30 11:24:06;;;;;;;18.15;4.72;;;;;;;8.37;100.00;100825.59;5031275;28;20048;-71
2021/11/30 11:26:39;;;;;;;14.93;4.13;;;;;;;8.38;100.00;100837.88;5031471;28;20034;-71
2021/11/30 11:29:19;;;;;;;22.35;4.22;;;;;;;8.39;100.00;100830.75;5031329;28;20034;-71
2021/11/30 11:31:46;;;;;;;15.52;3.70;;;;;;;8.40;100.00;100830.63;5031690;28;20124;-71
2021/11/30 11:34:14;;;;;;;22.23;4.18;;;;;;;8.39;100.00;100830.75;5031120;28;20494;-72